< < Back
Terminal Aerodrome Forecast


Current Version              Previous Versions:   1  2  3  4  5  6  7  8  9  

Terminal Aerodrome Forecast

778
FTUS42 KFFC 030758 AAA
TAFPDK
TAF AMD
KPDK 030758Z 0308/0406 00000KT P6SM SCT025 BKN100
     FM030900 00000KT 5SM BR SCT009 BKN015
     FM031100 24004KT 6SM BR BKN008
     FM031400 27006KT P6SM OVC015
     FM031700 30010KT P6SM BKN050
     FM040000 30007KT P6SM SCT100=



Latest METAR

374
SAUS70 KWBC 031800 RRG
MTRPDK
METAR KPDK 031753Z 30010KT 10SM FEW030 SCT048 BKN060 23/16 A2989 RMK AO2
SLP110 60001 T02280161 10233 20183 58009


USA.gov is the U.S. government's official web portal to all federal, state and local government web resources and services.